Hamburg, Louisiana
Current Conditions -  °F | °C
As of 5:35 AM on Thursday 27 Nov 2014 (Local Time) from KOPL Reporting Station
Clear Clear  
Wind Chill: 41°   Ceiling: Unl
Heat Index: 45°   Visibility: 10mi
Dew Point: 36°   Wind: 7mph
Humidity: 72%   Direction: 350°N
Pressure: 30.4"   Gusts: NA
Location:  31.03°N, 91.93°W
Report Text: KOPL 271135Z AUTO 35006KT 10SM CLR 07/02 A3040 RMK AO2 T00700023
Loading
Personal Weather Stations






























Interactive Weather Map New forecast layout! Learn more

10-Day Weather Forecast

Advertisements
Track Severe Weather on mobile